Time;durP1;ratioP1;P1;durP2;ratioP2;P2;SDS_P1;SDS_P2;PMS_P1;PMS_P2;Temp;Humidity;BMP_temperature;BMP_pressure;BME280_temperature;BME280_humidity;BME280_pressure;Samples;Min_cycle;Max_cycle;Signal;HPM_P1;HPM_P2
2023/01/09 00:00:11;;;;;;;1.48;0.90;;;;;;;8.66;73.31;99311.13;5020848;28;20114;-67
2023/01/09 00:02:39;;;;;;;1.65;1.10;;;;;;;8.66;73.38;99302.81;5026114;28;20045;-67
2023/01/09 00:05:06;;;;;;;2.25;0.80;;;;;;;8.63;73.77;99310.84;5030772;28;20025;-67
2023/01/09 00:07:31;;;;;;;2.03;1.00;;;;;;;8.63;73.31;99308.91;5029458;28;20026;-67
2023/01/09 00:09:57;;;;;;;1.10;0.85;;;;;;;8.63;73.02;99308.06;5027620;28;20112;-67
2023/01/09 00:12:22;;;;;;;1.10;1.00;;;;;;;8.64;73.18;99312.50;5030969;28;20033;-67
2023/01/09 00:14:48;;;;;;;1.73;1.00;;;;;;;8.59;73.08;99310.56;5029619;28;20147;-67
2023/01/09 00:17:13;;;;;;;1.48;1.00;;;;;;;8.60;72.96;99321.34;5023288;28;20034;-67
2023/01/09 00:19:38;;;;;;;1.08;0.85;;;;;;;8.59;73.10;99314.16;5017940;28;20026;-67
2023/01/09 00:22:05;;;;;;;1.30;1.20;;;;;;;8.56;72.78;99330.47;5016932;28;20112;-67
2023/01/09 00:24:31;;;;;;;3.15;1.00;;;;;;;8.58;73.11;99328.28;5031901;28;20029;-67
2023/01/09 00:26:56;;;;;;;1.00;0.90;;;;;;;8.58;72.42;99326.34;5032232;28;20025;-67
2023/01/09 00:29:21;;;;;;;1.92;1.00;;;;;;;8.54;72.41;99324.41;5020586;28;20389;-67
2023/01/09 00:31:47;;;;;;;2.13;0.90;;;;;;;8.53;72.51;99329.09;5020857;28;20033;-67
2023/01/09 00:34:12;;;;;;;1.90;1.00;;;;;;;8.51;72.25;99328.53;5024190;28;20048;-67
2023/01/09 00:36:37;;;;;;;0.93;0.80;;;;;;;8.48;72.81;99336.56;5010919;28;20026;-67
2023/01/09 00:39:04;;;;;;;2.35;1.20;;;;;;;8.48;72.64;99331.84;5012398;28;20042;-67
2023/01/09 00:41:40;;;;;;;3.60;0.95;;;;;;;8.48;72.73;99339.31;5011048;28;20026;-67
2023/01/09 00:44:18;;;;;;;1.50;1.13;;;;;;;8.46;72.47;99336.84;5027501;28;20046;-67
2023/01/09 00:46:48;;;;;;;3.33;1.35;;;;;;;8.46;71.96;99333.25;5024737;28;20049;-66
2023/01/09 00:49:15;;;;;;;3.90;1.10;;;;;;;8.42;72.00;99332.16;5030458;28;20151;-67
2023/01/09 00:51:41;;;;;;;4.20;1.48;;;;;;;8.41;72.33;99334.09;5030993;28;20045;-67
2023/01/09 00:54:10;;;;;;;2.17;1.10;;;;;;;8.38;72.20;99334.63;5031504;28;20557;-67
2023/01/09 00:56:35;;;;;;;1.15;0.90;;;;;;;8.37;71.64;99327.44;5030376;28;20033;-67
2023/01/09 00:59:02;;;;;;;1.70;1.02;;;;;;;8.36;71.79;99326.56;5014529;28;20046;-67
2023/01/09 01:01:28;;;;;;;2.63;1.13;;;;;;;8.35;71.60;99326.84;5020989;28;20444;-67
2023/01/09 01:03:53;;;;;;;2.95;1.02;;;;;;;8.30;71.83;99337.91;5028889;28;20030;-67
2023/01/09 01:09:03;;;;;;;1.52;1.10;;;;;;;8.33;72.41;99343.72;5014291;28;20137;-67
2023/01/09 01:11:31;;;;;;;1.05;0.90;;;;;;;8.31;71.69;99336.81;5030590;28;20029;-67
2023/01/09 01:13:57;;;;;;;3.70;1.05;;;;;;;8.29;71.78;99339.00;5029189;28;22588;-67
2023/01/09 01:16:22;;;;;;;1.77;1.10;;;;;;;8.25;71.58;99340.66;5028025;28;20045;-67
2023/01/09 01:18:48;;;;;;;2.00;1.23;;;;;;;8.24;71.51;99337.06;5031021;28;20021;-67
2023/01/09 01:21:14;;;;;;;3.15;1.00;;;;;;;8.21;72.02;99336.78;5025610;28;20457;-67
2023/01/09 01:23:40;;;;;;;2.88;1.08;;;;;;;8.18;71.58;99338.19;5021078;28;20022;-67
2023/01/09 01:26:08;;;;;;;2.17;1.35;;;;;;;8.20;72.25;99347.00;5012872;28;20037;-67
2023/01/09 01:28:33;;;;;;;3.28;1.10;;;;;;;8.20;71.61;99357.25;5018304;28;20026;-67
2023/01/09 01:31:00;;;;;;;2.63;1.20;;;;;;;8.17;71.31;99343.97;5030815;28;20021;-67
2023/01/09 01:33:25;;;;;;;2.92;1.27;;;;;;;8.15;71.79;99357.25;5029930;28;20075;-68
2023/01/09 01:35:58;;;;;;;4.15;1.42;;;;;;;8.15;72.22;99360.00;5029295;28;20484;-67
2023/01/09 01:38:24;;;;;;;3.50;1.17;;;;;;;8.14;71.96;99356.41;5029529;28;20036;-67
2023/01/09 01:40:53;;;;;;;2.10;1.00;;;;;;;8.09;71.81;99348.91;5026421;28;20021;-67
2023/01/09 01:43:19;;;;;;;3.58;1.33;;;;;;;8.06;71.54;99355.03;5030878;28;20048;-67
2023/01/09 01:45:44;;;;;;;3.22;1.33;;;;;;;7.94;71.56;99361.88;5030564;28;20469;-68
2023/01/09 01:48:25;;;;;;;2.17;1.52;;;;;;;7.88;72.50;99358.28;5031079;28;20025;-67
2023/01/09 01:50:56;;;;;;;1.95;1.52;;;;;;;7.84;72.71;99368.22;5025811;28;20566;-67
2023/01/09 01:53:42;;;;;;;2.22;1.40;;;;;;;7.91;72.57;99374.31;5030290;28;20407;-67
2023/01/09 01:56:13;;;;;;;2.97;1.42;;;;;;;7.89;71.93;99376.50;5027577;28;20484;-68
2023/01/09 01:58:47;;;;;;;3.67;1.30;;;;;;;7.91;72.15;99366.03;5028149;28;20048;-68
2023/01/09 02:01:13;;;;;;;3.35;1.20;;;;;;;7.87;72.45;99370.44;5030553;28;20044;-67
2023/01/09 02:03:41;;;;;;;2.53;1.40;;;;;;;7.87;72.28;99370.44;5030797;28;20030;-68
2023/01/09 02:06:08;;;;;;;3.67;1.50;;;;;;;7.83;72.06;99380.38;5028488;28;20091;-67
2023/01/09 02:08:34;;;;;;;3.67;1.40;;;;;;;7.83;72.29;99381.19;5014055;28;20038;-68
2023/01/09 02:11:01;;;;;;;2.95;1.42;;;;;;;7.81;71.87;99377.88;5030191;28;20037;-67
2023/01/09 02:13:27;;;;;;;3.30;1.40;;;;;;;7.86;72.09;99385.38;5027759;28;20377;-67
2023/01/09 02:16:02;;;;;;;4.03;1.55;;;;;;;7.84;72.21;99376.50;5012869;28;20044;-67
2023/01/09 02:18:51;;;;;;;3.80;1.48;;;;;;;7.83;72.59;99380.38;5011076;28;20030;-67
2023/01/09 02:21:16;;;;;;;3.72;1.30;;;;;;;7.74;71.66;99377.31;5025829;28;20087;-67
2023/01/09 02:24:00;;;;;;;2.00;1.20;;;;;;;7.74;72.81;99370.94;5028130;28;20033;-67
2023/01/09 02:27:04;;;;;;;4.50;1.60;;;;;;;7.76;71.94;99379.78;5028980;28;20477;-67
2023/01/09 02:29:42;;;;;;;;;;;;;;;7.87;72.41;99375.97;5034219;28;20041;-66
2023/01/09 02:32:46;;;;;;;4.53;1.33;;;;;;;7.77;71.86;99382.28;5033614;28;19917;-67
2023/01/09 02:35:29;;;;;;;2.97;1.13;;;;;;;7.76;72.04;99369.56;4950624;28;20034;-68
2023/01/09 02:37:54;;;;;;;;;;;;;;;7.86;71.93;99374.31;5029018;28;20056;-67
2023/01/09 02:41:07;;;;;;;2.15;1.27;;;;;;;7.78;72.01;99364.63;5031138;28;20296;-67
2023/01/09 02:43:32;;;;;;;2.45;1.30;;;;;;;7.73;72.22;99369.28;5032168;28;20377;-67
2023/01/09 02:45:58;;;;;;;3.40;1.60;;;;;;;7.69;71.78;99370.91;5032631;28;20044;-67
2023/01/09 02:48:23;;;;;;;4.40;1.90;;;;;;;7.70;71.76;99367.03;5018345;28;20548;-67
2023/01/09 02:51:17;;;;;;;3.17;1.80;;;;;;;7.64;72.49;99366.22;5018262;28;20049;-67
2023/01/09 02:53:55;;;;;;;3.70;1.58;;;;;;;7.65;72.07;99369.81;5032240;28;20449;-67
2023/01/09 02:56:35;;;;;;;5.95;1.50;;;;;;;7.68;72.05;99359.03;5032950;28;20041;-67
2023/01/09 02:59:21;;;;;;;6.25;1.80;;;;;;;7.65;72.40;99345.78;5034207;28;20112;-67
2023/01/09 03:02:08;;;;;;;4.22;1.70;;;;;;;7.59;71.82;99344.94;5028858;28;20058;-67
2023/01/09 03:04:57;;;;;;;3.22;1.63;;;;;;;7.67;72.29;99331.72;5030473;28;20549;-67
2023/01/09 03:07:29;;;;;;;3.47;1.60;;;;;;;7.57;71.92;99347.13;5026390;28;20042;-67
2023/01/09 03:10:02;;;;;;;2.85;1.60;;;;;;;7.60;72.14;99348.53;5032638;28;20025;-67
2023/01/09 03:12:31;;;;;;;4.57;2.00;;;;;;;7.54;71.61;99339.38;5034112;28;20029;-67
2023/01/09 03:14:59;;;;;;;4.50;1.70;;;;;;;7.47;72.46;99349.03;5033402;28;20104;-68
2023/01/09 03:17:34;;;;;;;3.00;1.75;;;;;;;7.47;72.38;99349.03;5033307;28;20093;-67
2023/01/09 03:20:02;;;;;;;3.03;1.52;;;;;;;7.52;72.36;99362.84;5028413;28;20061;-67
2023/01/09 03:22:27;;;;;;;6.50;2.38;;;;;;;7.50;72.34;99360.34;5031443;28;20037;-67
2023/01/09 03:24:53;;;;;;;4.80;2.05;;;;;;;7.50;72.02;99359.50;5032794;28;20029;-67
2023/01/09 03:27:18;;;;;;;4.43;2.08;;;;;;;7.49;71.61;99368.91;5032874;28;20060;-67
2023/01/09 03:29:44;;;;;;;4.65;2.08;;;;;;;7.46;72.29;99364.75;5023661;28;20021;-67
2023/01/09 03:32:09;;;;;;;4.53;2.00;;;;;;;7.45;72.57;99365.84;5015661;28;20037;-67
2023/01/09 03:34:34;;;;;;;5.68;1.95;;;;;;;7.44;72.35;99368.88;5031579;28;20044;-67
2023/01/09 03:37:00;;;;;;;5.93;2.08;;;;;;;7.40;72.25;99365.84;5030302;28;20029;-67
2023/01/09 03:39:26;;;;;;;5.47;2.40;;;;;;;7.31;72.59;99356.38;5031917;28;20582;-67
2023/01/09 03:41:51;;;;;;;4.57;2.22;;;;;;;7.28;72.35;99354.19;5030084;28;20603;-67
2023/01/09 03:44:16;;;;;;;5.13;1.80;;;;;;;7.28;72.38;99355.00;5012907;28;20038;-67
2023/01/09 03:46:42;;;;;;;5.30;2.00;;;;;;;7.29;73.35;99364.13;5029315;28;20492;-68
2023/01/09 03:49:07;;;;;;;6.18;2.00;;;;;;;7.27;71.95;99360.78;5015474;28;20140;-67
2023/01/09 03:51:32;;;;;;;4.50;2.15;;;;;;;7.23;73.13;99360.50;5031949;28;20045;-67
2023/01/09 03:53:57;;;;;;;6.97;2.00;;;;;;;7.16;73.75;99365.44;5029276;28;20028;-67
2023/01/09 03:56:24;;;;;;;3.47;2.05;;;;;;;7.21;72.83;99362.69;5014132;28;20025;-67
2023/01/09 03:58:51;;;;;;;7.50;1.83;;;;;;;7.24;72.60;99362.16;5012080;28;20030;-67
2023/01/09 04:01:17;;;;;;;5.97;1.80;;;;;;;7.21;72.52;99367.38;5022367;28;20030;-67
2023/01/09 04:03:42;;;;;;;5.35;1.90;;;;;;;7.22;72.12;99364.34;5031748;28;20488;-67
2023/01/09 04:06:08;;;;;;;5.13;1.67;;;;;;;7.26;72.51;99359.13;5021017;28;20028;-67
2023/01/09 04:08:33;;;;;;;7.80;1.98;;;;;;;7.28;72.63;99366.06;5031528;28;20033;-67
2023/01/09 04:10:58;;;;;;;3.78;1.70;;;;;;;7.20;73.15;99360.22;5025937;28;20030;-67
2023/01/09 04:13:24;;;;;;;4.18;1.80;;;;;;;7.21;72.56;99361.88;5030809;28;20056;-67
2023/01/09 04:15:49;;;;;;;6.80;2.15;;;;;;;7.17;73.01;99358.81;5031772;28;20469;-67
2023/01/09 04:18:14;;;;;;;4.97;1.67;;;;;;;7.23;73.21;99362.41;5031829;28;20552;-67
2023/01/09 04:20:40;;;;;;;4.65;1.75;;;;;;;7.22;73.36;99358.00;5031307;28;20029;-67
2023/01/09 04:23:06;;;;;;;4.10;1.75;;;;;;;7.26;73.00;99356.38;5026874;28;20072;-67
2023/01/09 04:25:31;;;;;;;5.68;2.08;;;;;;;7.27;73.81;99366.28;5014673;28;20038;-67
2023/01/09 04:27:57;;;;;;;7.40;1.90;;;;;;;7.27;73.21;99360.78;5016977;28;20029;-67
2023/01/09 04:30:22;;;;;;;3.88;1.50;;;;;;;7.29;73.58;99364.94;5026782;28;20044;-68
2023/01/09 04:32:48;;;;;;;5.18;2.00;;;;;;;7.35;73.00;99358.38;5012218;28;20042;-67
2023/01/09 04:35:13;;;;;;;5.65;2.05;;;;;;;7.40;73.27;99371.34;5012896;28;20025;-67
2023/01/09 04:37:38;;;;;;;7.68;1.50;;;;;;;7.39;73.12;99361.41;5012117;28;20057;-67
2023/01/09 04:40:09;;;;;;;8.00;1.90;;;;;;;7.42;73.37;99368.31;5024897;28;20022;-67
2023/01/09 04:42:34;;;;;;;7.93;1.67;;;;;;;7.27;73.39;99366.28;5030689;28;20031;-67
2023/01/09 04:44:59;;;;;;;6.07;1.90;;;;;;;7.29;73.23;99375.16;5026215;28;20037;-67
2023/01/09 04:47:25;;;;;;;4.90;1.60;;;;;;;7.28;73.60;99356.94;5031988;28;20068;-67
2023/01/09 04:49:50;;;;;;;7.68;2.05;;;;;;;7.31;74.16;99361.91;5029383;28;20100;-66
2023/01/09 04:52:16;;;;;;;4.75;1.88;;;;;;;7.33;73.50;99373.53;5031193;28;20041;-66
2023/01/09 04:54:41;;;;;;;8.25;1.92;;;;;;;7.34;73.07;99373.25;5019142;28;20033;-67
2023/01/09 04:57:06;;;;;;;8.23;1.90;;;;;;;7.37;73.50;99371.88;5021078;28;20030;-67
2023/01/09 04:59:32;;;;;;;5.80;2.00;;;;;;;7.34;73.20;99356.69;5023401;28;20100;-67
2023/01/09 05:01:58;;;;;;;8.77;1.90;;;;;;;7.35;73.16;99361.13;5027707;28;20095;-67
2023/01/09 05:04:24;;;;;;;9.50;1.70;;;;;;;7.35;73.72;99357.53;5018156;28;20030;-66
2023/01/09 05:06:49;;;;;;;5.88;1.80;;;;;;;7.34;73.60;99356.69;5014782;28;20113;-67
2023/01/09 05:09:14;;;;;;;5.82;1.98;;;;;;;7.36;73.30;99361.94;5027487;28;20117;-66
2023/01/09 05:11:40;;;;;;;5.00;2.08;;;;;;;7.36;72.87;99361.94;5031414;28;20067;-66
2023/01/09 05:14:05;;;;;;;4.70;1.90;;;;;;;7.33;72.81;99363.31;5028340;28;20036;-66
2023/01/09 05:16:30;;;;;;;5.35;2.00;;;;;;;7.33;73.85;99363.31;5025923;28;20048;-66
2023/01/09 05:18:56;;;;;;;7.10;2.00;;;;;;;7.38;73.93;99354.22;5025714;28;20041;-66
2023/01/09 05:21:25;;;;;;;7.72;2.10;;;;;;;7.36;73.37;99360.00;5017514;28;20029;-66
2023/01/09 05:23:51;;;;;;;6.70;2.10;;;;;;;7.38;73.26;99360.56;5013151;28;20049;-66
2023/01/09 05:26:18;;;;;;;9.10;2.30;;;;;;;7.40;73.29;99354.78;5011401;28;20041;-66
2023/01/09 05:28:43;;;;;;;6.57;2.13;;;;;;;7.46;73.25;99350.94;5011399;28;20038;-66
2023/01/09 05:31:08;;;;;;;9.20;2.03;;;;;;;7.45;73.35;99349.28;5018995;28;20029;-67
2023/01/09 05:33:34;;;;;;;6.15;1.85;;;;;;;7.48;73.53;99353.44;5028262;28;20041;-67
2023/01/09 05:35:59;;;;;;;6.90;1.95;;;;;;;7.46;73.08;99358.41;5031360;28;20034;-66
2023/01/09 05:38:24;;;;;;;6.88;2.10;;;;;;;7.42;73.29;99346.22;5026254;28;20087;-66
2023/01/09 05:40:50;;;;;;;6.40;1.92;;;;;;;7.43;73.59;99347.88;5011766;28;20068;-67
2023/01/09 05:43:15;;;;;;;9.38;2.10;;;;;;;7.42;72.83;99340.72;5013614;28;20030;-67
2023/01/09 05:45:40;;;;;;;7.32;2.30;;;;;;;7.38;73.30;99344.00;5011359;28;20134;-66
2023/01/09 05:48:05;;;;;;;7.63;2.03;;;;;;;7.36;73.54;99343.47;5027461;28;20044;-66
2023/01/09 05:50:31;;;;;;;7.55;2.10;;;;;;;7.40;73.37;99348.44;5023951;28;20037;-66
2023/01/09 05:52:56;;;;;;;5.95;1.88;;;;;;;7.43;72.79;99340.47;5011483;28;20099;-67
2023/01/09 05:55:21;;;;;;;8.00;2.20;;;;;;;7.46;73.51;99337.13;5020113;28;20588;-66
2023/01/09 05:57:47;;;;;;;11.07;1.83;;;;;;;7.50;73.84;99338.25;5015897;28;20033;-67
2023/01/09 06:00:14;;;;;;;8.18;1.90;;;;;;;7.53;73.37;99346.00;5010989;28;20041;-66
2023/01/09 06:02:39;;;;;;;8.18;2.20;;;;;;;7.56;73.22;99339.94;5026849;28;20116;-66
2023/01/09 06:05:05;;;;;;;6.85;1.90;;;;;;;7.62;72.85;99338.88;5027027;28;20142;-66
2023/01/09 06:07:30;;;;;;;5.57;1.95;;;;;;;7.60;72.63;99343.00;5028856;28;20112;-66
2023/01/09 06:09:55;;;;;;;6.43;2.35;;;;;;;7.62;72.58;99330.59;5025667;28;20025;-66
2023/01/09 06:12:21;;;;;;;8.15;2.47;;;;;;;7.65;73.22;99329.19;5028228;28;20025;-66
2023/01/09 06:14:46;;;;;;;7.40;2.05;;;;;;;7.66;72.49;99318.97;5033353;28;20034;-66
2023/01/09 06:17:11;;;;;;;6.47;2.13;;;;;;;7.66;72.48;99321.75;5023496;28;20025;-66
2023/01/09 06:19:37;;;;;;;9.15;2.22;;;;;;;7.66;72.56;99330.03;5032249;28;20072;-66
2023/01/09 06:22:02;;;;;;;9.02;2.42;;;;;;;7.59;72.88;99336.66;5017208;28;20037;-66
2023/01/09 06:24:27;;;;;;;8.35;1.80;;;;;;;7.57;73.13;99333.31;5013745;28;20034;-66
2023/01/09 06:26:53;;;;;;;5.93;2.15;;;;;;;7.59;73.38;99353.22;5012957;28;20554;-66
2023/01/09 06:29:18;;;;;;;9.63;2.03;;;;;;;7.58;72.96;99332.25;5015011;28;20052;-66
2023/01/09 06:31:43;;;;;;;9.48;2.40;;;;;;;7.62;72.85;99333.34;5032638;28;20033;-66
2023/01/09 06:34:09;;;;;;;8.13;2.22;;;;;;;7.65;73.64;99333.91;5024706;28;20073;-66
2023/01/09 06:36:34;;;;;;;9.30;2.30;;;;;;;7.67;73.30;99342.75;5031681;28;20028;-66
2023/01/09 06:38:59;;;;;;;5.78;2.05;;;;;;;7.70;72.75;99337.50;5030261;28;20041;-67
2023/01/09 06:41:25;;;;;;;7.28;2.20;;;;;;;7.73;72.16;99347.19;5028973;28;20029;-66
2023/01/09 06:43:50;;;;;;;6.05;2.00;;;;;;;7.77;73.01;99340.00;5013199;28;20541;-65
2023/01/09 06:46:15;;;;;;;6.50;2.05;;;;;;;7.78;73.01;99336.13;5012730;28;20049;-67
2023/01/09 06:48:41;;;;;;;11.40;2.05;;;;;;;7.77;72.38;99340.84;5026840;28;20037;-67
2023/01/09 06:51:06;;;;;;;7.68;1.75;;;;;;;7.79;72.33;99337.81;5028736;28;20103;-67
2023/01/09 06:53:31;;;;;;;7.53;2.17;;;;;;;7.78;72.44;99344.44;5027400;28;20021;-67
2023/01/09 06:55:57;;;;;;;6.55;2.22;;;;;;;7.74;73.00;99344.16;5031684;28;20421;-67
2023/01/09 06:58:22;;;;;;;6.13;1.92;;;;;;;7.71;71.78;99346.63;5031859;28;20457;-67
2023/01/09 07:00:52;;;;;;;6.05;1.92;;;;;;;7.74;72.44;99351.59;5031076;28;20388;-67
2023/01/09 07:03:19;;;;;;;7.45;1.80;;;;;;;7.74;72.70;99357.97;5028966;28;20322;-66
2023/01/09 07:05:45;;;;;;;10.55;2.17;;;;;;;7.81;72.88;99357.69;5029973;28;20033;-67
2023/01/09 07:08:11;;;;;;;7.72;2.10;;;;;;;7.80;72.49;99358.81;5031573;28;20072;-66
2023/01/09 07:10:36;;;;;;;4.82;1.80;;;;;;;7.78;72.42;99372.03;5013890;28;20470;-67
2023/01/09 07:13:02;;;;;;;7.90;2.10;;;;;;;7.77;72.19;99364.88;5022981;28;20104;-66
2023/01/09 07:15:27;;;;;;;8.68;2.00;;;;;;;7.73;73.46;99372.88;5018970;28;20017;-66
2023/01/09 07:17:53;;;;;;;5.03;1.80;;;;;;;7.76;73.20;99368.75;5028069;28;20040;-66
2023/01/09 07:20:18;;;;;;;5.72;1.70;;;;;;;7.77;73.40;99384.22;5021984;28;20151;-67
2023/01/09 07:22:45;;;;;;;6.00;1.80;;;;;;;7.78;73.32;99383.09;5011013;28;20050;-66
2023/01/09 07:25:10;;;;;;;9.15;2.33;;;;;;;7.82;73.87;99386.97;5010930;28;20041;-66
2023/01/09 07:27:36;;;;;;;7.97;2.28;;;;;;;7.82;73.94;99387.84;5027433;28;20030;-67
2023/01/09 07:30:02;;;;;;;6.53;2.08;;;;;;;7.87;74.66;99398.06;5029018;28;20033;-67
2023/01/09 07:32:27;;;;;;;6.80;2.13;;;;;;;7.89;74.34;99404.13;5017678;28;20033;-66
2023/01/09 07:34:53;;;;;;;4.88;1.67;;;;;;;7.93;74.03;99416.31;5031484;28;20509;-67
2023/01/09 07:37:18;;;;;;;6.72;2.28;;;;;;;7.92;73.85;99409.13;5025574;28;20026;-67
2023/01/09 07:39:43;;;;;;;6.03;1.83;;;;;;;7.91;74.26;99407.47;5029742;28;20021;-68
2023/01/09 07:42:09;;;;;;;6.75;1.85;;;;;;;7.89;74.55;99417.94;5013079;28;20018;-69
2023/01/09 07:44:35;;;;;;;8.80;1.88;;;;;;;7.88;74.82;99413.53;5030743;28;20477;-69
2023/01/09 07:47:00;;;;;;;8.75;2.40;;;;;;;7.87;75.17;99428.44;5029787;28;20045;-68
2023/01/09 07:49:25;;;;;;;9.90;2.30;;;;;;;7.91;74.74;99424.03;5026092;28;20033;-68
2023/01/09 07:51:51;;;;;;;9.82;2.42;;;;;;;7.87;74.64;99425.69;5027589;28;20049;-68
2023/01/09 07:54:16;;;;;;;10.52;2.50;;;;;;;7.86;74.92;99430.38;5016791;28;20033;-69
2023/01/09 07:56:42;;;;;;;6.80;2.40;;;;;;;7.88;74.98;99432.88;5011417;28;20041;-68
2023/01/09 07:59:07;;;;;;;10.90;2.75;;;;;;;7.90;74.54;99430.69;5028084;28;20095;-67
2023/01/09 08:01:32;;;;;;;6.38;2.33;;;;;;;7.92;75.09;99433.16;5022312;28;20481;-66
2023/01/09 08:03:58;;;;;;;7.55;1.90;;;;;;;7.90;74.57;99438.13;5029982;28;20056;-66
2023/01/09 08:06:23;;;;;;;5.13;1.90;;;;;;;7.86;74.84;99446.13;5023732;28;20029;-66
2023/01/09 08:08:49;;;;;;;7.03;2.53;;;;;;;7.86;74.74;99452.50;5026649;28;20029;-66
2023/01/09 08:11:14;;;;;;;7.53;3.00;;;;;;;7.78;75.69;99444.72;5016631;28;20038;-67
2023/01/09 08:13:39;;;;;;;7.03;1.90;;;;;;;7.82;75.94;99451.38;5021333;28;20026;-67
2023/01/09 08:16:05;;;;;;;6.43;2.00;;;;;;;7.83;75.86;99466.00;5024714;28;20033;-66
2023/01/09 08:18:30;;;;;;;7.85;2.50;;;;;;;7.84;75.68;99462.97;5025109;28;20477;-68
2023/01/09 08:20:56;;;;;;;7.40;2.17;;;;;;;7.83;75.40;99466.84;5019057;28;20033;-67
2023/01/09 08:23:21;;;;;;;4.07;2.20;;;;;;;7.85;75.68;99474.84;5019329;28;20531;-67
2023/01/09 08:25:46;;;;;;;7.57;2.40;;;;;;;7.86;76.15;99469.06;5011225;28;20065;-67
2023/01/09 08:28:11;;;;;;;6.97;2.40;;;;;;;7.87;75.48;99479.00;5022175;28;20095;-68
2023/01/09 08:30:37;;;;;;;8.85;3.03;;;;;;;7.88;75.93;99488.13;5029390;28;20044;-67
2023/01/09 08:33:02;;;;;;;8.60;2.80;;;;;;;7.89;75.42;99492.53;5022875;28;20029;-66
2023/01/09 08:35:28;;;;;;;7.95;3.03;;;;;;;7.88;76.18;99501.94;5026870;28;20030;-66
2023/01/09 08:37:53;;;;;;;10.70;3.65;;;;;;;7.87;76.46;99506.63;5030114;28;20040;-67
2023/01/09 08:40:19;;;;;;;6.05;2.60;;;;;;;7.88;76.40;99510.22;5022041;28;20021;-68
2023/01/09 08:48:15;;;;;;;6.88;4.78;;;;;;;7.75;76.71;99519.81;5037757;28;20048;-66
2023/01/09 08:50:42;;;;;;;7.63;3.13;;;;;;;7.78;76.68;99529.50;5028003;28;20021;-66
2023/01/09 08:53:08;;;;;;;4.35;2.20;;;;;;;7.78;77.54;99529.50;5028069;28;20037;-66
2023/01/09 08:55:33;;;;;;;8.05;2.53;;;;;;;7.81;77.37;99538.06;5028447;28;20077;-67
2023/01/09 08:57:59;;;;;;;6.13;2.60;;;;;;;7.85;77.19;99546.66;5028667;28;20060;-68
2023/01/09 09:00:24;;;;;;;8.68;2.35;;;;;;;7.87;77.13;99550.00;5013900;28;20088;-67
2023/01/09 09:02:55;;;;;;;7.18;2.13;;;;;;;7.88;76.69;99558.00;5028904;28;20036;-68
2023/01/09 09:05:21;;;;;;;3.80;2.17;;;;;;;7.83;77.33;99559.94;5029205;28;20025;-66
2023/01/09 09:07:48;;;;;;;6.38;2.65;;;;;;;7.87;77.39;99566.59;5023775;28;20779;-68
2023/01/09 09:10:15;;;;;;;3.88;2.10;;;;;;;7.86;76.87;99573.22;5015375;28;20064;-66
2023/01/09 09:12:40;;;;;;;6.68;2.20;;;;;;;7.89;76.77;99578.19;5024012;28;20446;-66
2023/01/09 09:15:14;;;;;;;8.27;2.22;;;;;;;7.90;77.00;99585.41;5010040;28;20092;-66
2023/01/09 09:17:39;;;;;;;6.35;2.20;;;;;;;7.90;76.81;99588.16;5009930;28;20052;-67
2023/01/09 09:20:07;;;;;;;6.60;2.40;;;;;;;7.91;77.07;99586.22;5020519;28;20025;-66
2023/01/09 09:22:32;;;;;;;4.18;2.03;;;;;;;7.92;76.80;99591.47;5019604;28;20037;-66
2023/01/09 09:24:57;;;;;;;7.70;2.40;;;;;;;7.94;77.36;99603.09;5025850;28;20032;-66
2023/01/09 09:27:23;;;;;;;3.75;2.30;;;;;;;7.95;77.23;99610.28;5026611;28;20532;-65
2023/01/09 09:29:48;;;;;;;7.07;2.65;;;;;;;7.94;77.30;99605.88;5024859;28;20032;-65
2023/01/09 09:32:14;;;;;;;7.35;2.70;;;;;;;7.96;77.79;99613.88;5026844;28;20495;-66
2023/01/09 09:34:39;;;;;;;6.78;3.10;;;;;;;7.95;77.36;99610.28;5023390;28;20488;-67
2023/01/09 09:37:05;;;;;;;8.38;3.42;;;;;;;7.97;78.20;99619.13;5020607;28;20288;-68
2023/01/09 09:39:30;;;;;;;7.43;3.22;;;;;;;7.98;77.19;99625.50;5026113;28;20477;-69
2023/01/09 09:45:25;;;;;;;7.35;2.80;;;;;;;7.99;77.21;99633.53;5023401;28;20052;-68
2023/01/09 09:48:07;;;;;;;6.03;3.58;;;;;;;7.95;78.06;99648.97;5010384;28;20092;-72
2023/01/09 09:50:50;;;;;;;4.55;3.45;;;;;;;7.96;77.94;99650.63;5020278;28;20106;-70
2023/01/09 09:53:33;;;;;;;4.70;3.08;;;;;;;8.00;77.62;99661.97;5023208;28;20087;-69
2023/01/09 09:56:00;;;;;;;7.05;3.13;;;;;;;7.96;77.18;99658.91;5024446;28;20539;-68
2023/01/09 09:58:44;;;;;;;6.30;3.03;;;;;;;7.98;77.95;99675.25;5025324;28;20067;-67
2023/01/09 10:01:14;;;;;;;6.47;3.00;;;;;;;7.98;77.85;99678.84;5023587;28;20025;-69
2023/01/09 10:03:47;;;;;;;7.70;3.10;;;;;;;8.01;78.89;99685.75;5021813;28;20109;-69
2023/01/09 10:06:19;;;;;;;8.48;3.28;;;;;;;8.07;78.56;99682.75;5012437;28;20036;-67
2023/01/09 10:09:23;;;;;;;7.60;3.97;;;;;;;8.10;77.50;99693.28;5011244;28;20697;-70
2023/01/09 10:12:23;;;;;;;6.10;3.63;;;;;;;8.25;78.17;99692.56;5027160;28;20037;-72
2023/01/09 10:14:48;;;;;;;9.88;3.90;;;;;;;8.46;80.62;99699.09;5015967;28;20038;-74
2023/01/09 10:17:39;;;;;;;13.73;4.30;;;;;;;8.52;79.39;99714.59;5021096;28;20564;-80
2023/01/09 10:20:23;;;;;;;9.38;3.90;;;;;;;8.57;76.90;99717.41;5026146;28;20128;-76
2023/01/09 10:22:58;;;;;;;10.85;4.10;;;;;;;8.45;76.58;99713.16;5018711;28;20026;-71
2023/01/09 10:25:32;;;;;;;5.55;3.97;;;;;;;8.40;76.97;99715.91;5019923;28;20026;-70
2023/01/09 10:28:28;;;;;;;8.48;4.35;;;;;;;8.38;77.03;99724.47;5016061;28;20108;-71
2023/01/09 10:31:11;;;;;;;6.85;3.60;;;;;;;8.31;76.83;99730.19;5022384;28;20030;-68
2023/01/09 10:34:24;;;;;;;7.18;3.60;;;;;;;8.31;76.67;99724.66;5021967;28;20072;-68
2023/01/09 10:36:56;;;;;;;9.02;3.65;;;;;;;8.27;77.19;99725.47;5022222;28;20046;-69
2023/01/09 10:39:28;;;;;;;7.90;3.97;;;;;;;8.26;77.23;99735.69;5024628;28;20044;-68
2023/01/09 10:42:03;;;;;;;10.00;3.70;;;;;;;8.26;77.24;99726.56;5020075;28;20125;-69
2023/01/09 10:44:37;;;;;;;11.00;4.85;;;;;;;8.25;77.84;99734.03;5019193;28;20034;-73
2023/01/09 10:47:17;;;;;;;7.93;3.45;;;;;;;8.26;77.78;99732.94;5020070;28;20033;-67
2023/01/09 10:49:44;;;;;;;7.30;3.35;;;;;;;8.22;77.41;99730.97;5025606;28;20028;-71
2023/01/09 10:52:16;;;;;;;11.90;3.60;;;;;;;8.24;77.38;99739.81;5027529;28;20042;-70
2023/01/09 10:54:48;;;;;;;7.57;3.60;;;;;;;8.24;77.29;99732.34;5021976;28;20029;-70
2023/01/09 10:57:26;;;;;;;7.22;3.03;;;;;;;8.32;77.74;99740.16;5028991;28;20127;-69
2023/01/09 10:59:51;;;;;;;8.88;3.72;;;;;;;8.52;78.28;99744.19;5028509;28;20025;-68
2023/01/09 11:02:27;;;;;;;7.53;3.70;;;;;;;8.66;78.07;99745.38;5028063;28;20034;-66
2023/01/09 11:04:53;;;;;;;7.65;4.30;;;;;;;8.74;77.66;99746.81;5012431;28;20512;-66
2023/01/09 11:07:22;;;;;;;6.50;3.75;;;;;;;8.85;77.43;99751.31;5025624;28;20053;-66
2023/01/09 11:09:58;;;;;;;5.68;3.47;;;;;;;8.92;77.08;99757.44;5025389;28;20037;-67
2023/01/09 11:12:26;;;;;;;6.97;3.97;;;;;;;9.02;77.85;99757.47;5016912;28;20021;-67
2023/01/09 11:14:52;;;;;;;11.95;3.83;;;;;;;9.13;76.76;99761.13;5025515;28;20025;-70
2023/01/09 11:17:25;;;;;;;12.40;3.47;;;;;;;9.20;76.97;99758.13;5025261;28;20037;-70
2023/01/09 11:20:03;;;;;;;9.77;3.95;;;;;;;9.27;76.65;99761.44;5023495;28;20033;-70
2023/01/09 11:22:28;;;;;;;7.72;3.53;;;;;;;9.29;76.31;99753.72;5023952;28;20511;-68
2023/01/09 11:25:01;;;;;;;11.18;3.95;;;;;;;9.31;75.95;99766.19;5030763;28;20061;-68
2023/01/09 11:27:27;;;;;;;7.90;3.58;;;;;;;9.33;75.58;99768.69;5030460;28;20037;-67
2023/01/09 11:30:22;;;;;;;10.80;3.97;;;;;;;9.38;75.89;99776.16;5024775;28;20030;-67
2023/01/09 11:32:48;;;;;;;7.40;3.65;;;;;;;9.38;75.31;99785.31;5025885;28;20042;-67
2023/01/09 11:35:25;;;;;;;11.20;4.18;;;;;;;9.30;74.76;99777.53;5032734;28;20044;-66
2023/01/09 11:38:01;;;;;;;8.43;4.15;;;;;;;9.25;74.65;99791.34;5025442;28;20033;-65
2023/01/09 11:40:30;;;;;;;9.55;4.28;;;;;;;9.19;74.83;99798.78;5028492;28;20036;-66
2023/01/09 11:43:14;;;;;;;9.23;4.03;;;;;;;9.17;75.56;99791.88;5016205;28;20116;-67
2023/01/09 11:45:52;;;;;;;10.18;4.38;;;;;;;9.09;74.92;99796.81;5026089;28;20552;-70
2023/01/09 11:48:28;;;;;;;10.98;4.22;;;;;;;9.02;75.31;99796.22;5030460;28;20476;-70
2023/01/09 11:50:57;;;;;;;12.40;4.47;;;;;;;9.00;75.05;99792.91;5028907;28;20049;-72
2023/01/09 11:53:23;;;;;;;7.72;3.90;;;;;;;8.97;75.46;99798.16;5027791;28;20021;-70
2023/01/09 11:55:59;;;;;;;7.22;3.83;;;;;;;8.96;76.17;99802.84;5023742;28;24135;-70
2023/01/09 11:58:30;;;;;;;10.23;4.82;;;;;;;9.01;76.11;99794.56;5017010;28;20112;-69
2023/01/09 12:01:13;;;;;;;8.43;4.63;;;;;;;9.00;75.38;99792.91;5026915;28;20021;-69